createdAt,value
2023-02-17T00:01:24.104Z,2.25
2023-02-17T00:03:51.093Z,2.17
2023-02-17T00:06:18.381Z,2.16
2023-02-17T00:08:44.931Z,2.23
2023-02-17T00:11:11.729Z,2.23
2023-02-17T00:13:38.548Z,2.11
2023-02-17T00:16:09.050Z,2.01
2023-02-17T00:18:35.755Z,1.98
2023-02-17T00:21:10.955Z,1.94
2023-02-17T00:23:37.389Z,1.86
2023-02-17T00:26:07.777Z,1.82
2023-02-17T00:28:34.548Z,1.73
2023-02-17T00:31:05.436Z,1.74
2023-02-17T00:33:31.867Z,1.80
2023-02-17T00:35:58.284Z,1.93
2023-02-17T00:38:24.697Z,2.01
2023-02-17T00:40:51.141Z,2.09
2023-02-17T00:43:17.596Z,2.13
2023-02-17T00:45:44.035Z,2.15
2023-02-17T00:48:10.895Z,2.17
2023-02-17T00:50:37.345Z,2.15
2023-02-17T00:53:03.752Z,2.08
2023-02-17T00:55:30.203Z,1.99
2023-02-17T00:57:56.610Z,2.01
2023-02-17T01:00:23.165Z,2.09
2023-02-17T01:02:49.657Z,2.15
2023-02-17T01:05:16.114Z,2.19
2023-02-17T01:07:42.530Z,2.15
2023-02-17T01:10:09.422Z,2.17
2023-02-17T01:12:35.851Z,2.20
2023-02-17T01:15:02.493Z,2.21
2023-02-17T01:17:28.975Z,2.20
2023-02-17T01:19:55.671Z,2.22
2023-02-17T01:22:22.088Z,2.25
2023-02-17T01:24:48.619Z,2.23
2023-02-17T01:27:15.155Z,2.20
2023-02-17T01:29:41.870Z,2.17
2023-02-17T01:32:08.293Z,2.16
2023-02-17T01:34:34.704Z,2.12
2023-02-17T01:37:01.137Z,2.09
2023-02-17T01:39:27.632Z,2.01
2023-02-17T01:41:54.082Z,1.95
2023-02-17T01:44:23.078Z,1.86
2023-02-17T01:46:51.070Z,1.90
2023-02-17T01:49:17.463Z,1.91
2023-02-17T01:51:45.413Z,1.93
2023-02-17T01:54:14.414Z,1.95
2023-02-17T01:56:43.184Z,1.97
2023-02-17T01:59:17.148Z,1.98
2023-02-17T02:01:43.814Z,2.00
2023-02-17T02:04:10.438Z,1.99
2023-02-17T02:06:39.055Z,1.98
2023-02-17T02:09:11.096Z,1.96
2023-02-17T02:11:37.854Z,1.94
2023-02-17T02:14:06.841Z,1.95
2023-02-17T02:16:42.407Z,1.97
2023-02-17T02:19:27.544Z,1.97
2023-02-17T02:22:02.083Z,1.97
2023-02-17T02:24:36.878Z,1.98
2023-02-17T02:27:26.173Z,1.99
2023-02-17T02:30:08.751Z,1.98
2023-02-17T02:32:35.247Z,1.96
2023-02-17T02:35:15.079Z,1.96
2023-02-17T02:37:57.997Z,1.96
2023-02-17T02:40:27.123Z,1.94
2023-02-17T02:42:54.766Z,1.91
2023-02-17T02:45:21.457Z,1.91
2023-02-17T02:47:55.346Z,1.90
2023-02-17T02:50:31.210Z,1.92
2023-02-17T02:53:00.402Z,1.89
2023-02-17T02:55:29.629Z,1.88
2023-02-17T02:58:17.294Z,1.85
2023-02-17T03:00:54.436Z,1.89
2023-02-17T03:03:20.937Z,1.89
2023-02-17T03:05:50.469Z,1.88
2023-02-17T03:08:37.842Z,1.90
2023-02-17T03:11:04.424Z,1.92
2023-02-17T03:13:33.160Z,1.91
2023-02-17T03:15:59.603Z,1.85
2023-02-17T03:18:26.069Z,1.76
2023-02-17T03:20:54.764Z,1.75
2023-02-17T03:23:21.184Z,1.79
2023-02-17T03:25:47.674Z,1.66
2023-02-17T03:28:14.602Z,1.58
2023-02-17T03:30:41.282Z,1.58
2023-02-17T03:33:08.102Z,1.61
2023-02-17T03:35:34.714Z,1.61
2023-02-17T03:38:01.396Z,1.68
2023-02-17T03:40:27.853Z,1.68
2023-02-17T03:42:55.863Z,1.66
2023-02-17T03:45:22.322Z,1.66
2023-02-17T03:47:48.732Z,1.65
2023-02-17T03:50:15.193Z,1.51
2023-02-17T03:52:41.668Z,1.49
2023-02-17T03:55:08.288Z,1.50
2023-02-17T03:57:35.364Z,1.55
2023-02-17T04:00:01.794Z,1.58
2023-02-17T04:02:28.212Z,1.59
2023-02-17T04:04:54.833Z,1.60
2023-02-17T04:07:21.268Z,1.63
2023-02-17T04:09:47.687Z,1.68
2023-02-17T04:12:14.166Z,1.63
2023-02-17T04:14:40.585Z,1.65
2023-02-17T04:17:07.047Z,1.64
2023-02-17T04:19:33.467Z,1.66
2023-02-17T04:21:59.901Z,1.68
2023-02-17T04:24:26.406Z,1.68
2023-02-17T04:26:52.921Z,1.70
2023-02-17T04:29:19.346Z,1.68
2023-02-17T04:31:45.952Z,1.68
2023-02-17T04:34:12.469Z,1.67
2023-02-17T04:36:38.908Z,1.67
2023-02-17T04:39:05.480Z,1.62
2023-02-17T04:41:31.919Z,1.62
2023-02-17T04:43:58.444Z,1.60
2023-02-17T04:46:24.890Z,1.60
2023-02-17T04:48:51.330Z,1.63
2023-02-17T04:51:17.748Z,1.61
2023-02-17T04:53:44.182Z,1.60
2023-02-17T04:56:10.588Z,1.62
2023-02-17T04:58:37.033Z,1.61
2023-02-17T05:01:03.785Z,1.61
2023-02-17T05:03:30.230Z,1.58
2023-02-17T05:05:56.674Z,1.59
2023-02-17T05:08:23.210Z,1.59
2023-02-17T05:10:50.846Z,1.57
2023-02-17T05:13:17.282Z,1.55
2023-02-17T05:15:44.533Z,1.53
2023-02-17T05:18:11.275Z,1.51
2023-02-17T05:20:37.707Z,1.53
2023-02-17T05:23:04.300Z,1.53
2023-02-17T05:25:31.385Z,1.55
2023-02-17T05:27:57.787Z,1.54
2023-02-17T05:30:24.207Z,1.54
2023-02-17T05:32:50.645Z,1.56
2023-02-17T05:35:17.107Z,1.57
2023-02-17T05:37:43.532Z,1.57
2023-02-17T05:40:10.266Z,1.58
2023-02-17T05:42:36.692Z,1.58
2023-02-17T05:45:03.521Z,1.57
2023-02-17T05:47:30.103Z,1.59
2023-02-17T05:49:56.545Z,1.59
2023-02-17T05:52:22.980Z,1.58
2023-02-17T05:54:49.396Z,1.55
2023-02-17T05:57:15.831Z,1.52
2023-02-17T05:59:42.259Z,1.54
2023-02-17T06:02:08.846Z,1.53
2023-02-17T06:04:35.405Z,1.45
2023-02-17T06:07:01.910Z,1.35
2023-02-17T06:09:28.439Z,1.35
2023-02-17T06:11:54.931Z,1.38
2023-02-17T06:14:21.427Z,1.42
2023-02-17T06:16:47.865Z,1.47
2023-02-17T06:19:14.306Z,1.49
2023-02-17T06:21:40.771Z,1.48
2023-02-17T06:24:07.224Z,1.42
2023-02-17T06:26:33.652Z,1.45
2023-02-17T06:29:00.111Z,1.50
2023-02-17T06:31:26.668Z,1.52
2023-02-17T06:33:53.237Z,1.49
2023-02-17T06:36:19.699Z,1.43
2023-02-17T06:38:46.455Z,1.43
2023-02-17T06:41:12.930Z,1.44
2023-02-17T06:43:39.344Z,1.45
2023-02-17T06:46:06.153Z,1.49
2023-02-17T06:48:35.897Z,1.52
2023-02-17T06:51:02.339Z,1.48
2023-02-17T06:53:28.805Z,1.49
2023-02-17T06:55:55.273Z,1.43
2023-02-17T06:58:21.831Z,1.40
2023-02-17T07:00:48.325Z,1.34
2023-02-17T07:03:14.798Z,1.29
2023-02-17T07:05:41.296Z,1.33
2023-02-17T07:08:07.747Z,1.44
2023-02-17T07:10:34.305Z,1.49
2023-02-17T07:13:00.767Z,1.42
2023-02-17T07:15:27.229Z,1.33
2023-02-17T07:17:53.671Z,1.33
2023-02-17T07:20:22.151Z,1.38
2023-02-17T07:22:48.699Z,1.46
2023-02-17T07:25:15.178Z,1.56
2023-02-17T07:27:41.622Z,1.61
2023-02-17T07:30:08.356Z,1.64
2023-02-17T07:32:35.616Z,1.66
2023-02-17T07:35:02.199Z,1.69
2023-02-17T07:37:28.632Z,1.67
2023-02-17T07:39:57.106Z,1.62
2023-02-17T07:42:23.878Z,1.67
2023-02-17T07:44:50.298Z,1.67
2023-02-17T07:47:16.750Z,1.69
2023-02-17T07:49:43.278Z,1.72
2023-02-17T07:52:09.776Z,1.80
2023-02-17T07:54:36.238Z,1.83
2023-02-17T07:57:02.660Z,1.79
2023-02-17T07:59:29.205Z,1.77
2023-02-17T08:01:55.694Z,1.82
2023-02-17T08:04:22.209Z,1.83
2023-02-17T08:06:48.704Z,1.80
2023-02-17T08:09:33.647Z,1.80
2023-02-17T08:12:18.348Z,1.86
2023-02-17T08:14:44.795Z,1.92
2023-02-17T08:17:11.287Z,1.98
2023-02-17T08:19:53.023Z,2.03
2023-02-17T08:22:19.534Z,2.07
2023-02-17T08:24:46.456Z,2.07
2023-02-17T08:27:14.439Z,2.05
2023-02-17T08:29:41.150Z,2.07
2023-02-17T08:32:07.840Z,2.12
2023-02-17T08:34:34.467Z,2.13
2023-02-17T08:37:01.742Z,2.17
2023-02-17T08:39:28.687Z,2.22
2023-02-17T08:41:55.370Z,2.27
2023-02-17T08:44:22.390Z,2.29
2023-02-17T08:46:49.815Z,2.30
2023-02-17T08:49:17.595Z,2.31
2023-02-17T08:51:44.199Z,2.32
2023-02-17T08:54:11.131Z,2.36
2023-02-17T08:56:38.702Z,2.42
2023-02-17T08:59:05.554Z,2.51
2023-02-17T09:01:32.444Z,2.60
2023-02-17T09:04:00.541Z,2.64
2023-02-17T09:06:37.526Z,2.68
2023-02-17T09:09:05.484Z,2.77
2023-02-17T09:11:31.942Z,2.80
2023-02-17T09:13:58.486Z,2.87
2023-02-17T09:16:25.052Z,2.91
2023-02-17T09:18:54.505Z,2.93
2023-02-17T09:21:21.290Z,2.89
2023-02-17T09:23:48.487Z,2.93
2023-02-17T09:26:16.412Z,3.03
2023-02-17T09:28:42.937Z,3.08
2023-02-17T09:31:13.583Z,3.12
2023-02-17T09:33:40.928Z,3.13
2023-02-17T09:36:09.098Z,3.21
2023-02-17T09:38:37.020Z,3.23
2023-02-17T09:41:23.438Z,3.35
2023-02-17T09:43:53.664Z,3.40
2023-02-17T09:46:24.068Z,3.43
2023-02-17T09:48:51.046Z,3.48
2023-02-17T09:51:21.810Z,3.54
2023-02-17T09:53:57.184Z,3.64
2023-02-17T09:56:32.630Z,3.73
2023-02-17T09:59:02.886Z,3.78
2023-02-17T10:01:31.066Z,3.80
2023-02-17T10:04:02.547Z,3.80
2023-02-17T10:06:37.238Z,3.87
2023-02-17T10:09:13.068Z,3.84
2023-02-17T10:11:58.440Z,3.82
2023-02-17T10:14:28.923Z,3.88
2023-02-17T10:17:00.271Z,3.95
2023-02-17T10:19:32.442Z,4.05
2023-02-17T10:22:05.782Z,4.11
2023-02-17T10:24:32.220Z,4.23
2023-02-17T10:27:17.431Z,4.27
2023-02-17T10:29:50.710Z,4.30
2023-02-17T10:32:20.703Z,4.26
2023-02-17T10:35:02.429Z,4.33
2023-02-17T10:37:38.916Z,4.43
2023-02-17T10:40:31.484Z,4.50
2023-02-17T10:43:03.387Z,4.54
2023-02-17T10:45:37.125Z,4.62
2023-02-17T10:48:06.796Z,4.67
2023-02-17T10:50:34.780Z,4.71
2023-02-17T10:53:01.288Z,4.75
2023-02-17T10:55:38.767Z,4.80
2023-02-17T10:58:17.286Z,4.86
2023-02-17T11:00:45.691Z,4.81
2023-02-17T11:03:22.480Z,4.85
2023-02-17T11:05:59.034Z,4.89
2023-02-17T11:08:28.559Z,4.86
2023-02-17T11:10:59.217Z,4.83
2023-02-17T11:13:34.813Z,4.83
2023-02-17T11:16:01.543Z,4.79
2023-02-17T11:18:29.360Z,4.77
2023-02-17T11:21:04.208Z,4.73
2023-02-17T11:23:30.703Z,4.69
2023-02-17T11:25:58.609Z,4.67
2023-02-17T11:28:26.060Z,4.67
2023-02-17T11:30:54.307Z,4.69
2023-02-17T11:33:23.413Z,4.73
2023-02-17T11:35:53.308Z,4.74
2023-02-17T11:38:21.096Z,4.74
2023-02-17T11:40:55.043Z,4.80
2023-02-17T11:43:21.647Z,4.83
2023-02-17T11:45:59.214Z,4.86
2023-02-17T11:48:33.071Z,4.81
2023-02-17T11:51:11.838Z,4.81
2023-02-17T11:53:50.669Z,4.86
2023-02-17T11:56:17.895Z,4.91
2023-02-17T11:59:02.944Z,4.97
2023-02-17T12:01:52.679Z,4.97
2023-02-17T12:04:22.305Z,4.92
2023-02-17T12:06:48.696Z,4.92
2023-02-17T12:09:40.415Z,4.95
2023-02-17T12:12:12.910Z,4.98
2023-02-17T12:14:49.422Z,4.99
2023-02-17T12:17:24.681Z,5.00
2023-02-17T12:20:26.697Z,4.99
2023-02-17T12:23:08.229Z,4.83
2023-02-17T12:25:37.418Z,4.74
2023-02-17T12:28:10.055Z,4.76
2023-02-17T12:30:46.258Z,4.77
2023-02-17T12:33:21.425Z,4.77
2023-02-17T12:35:52.823Z,4.78
2023-02-17T12:38:24.647Z,4.79
2023-02-17T12:40:54.883Z,4.79
2023-02-17T12:43:30.414Z,4.73
2023-02-17T12:45:58.389Z,4.72
2023-02-17T12:48:40.288Z,4.70
2023-02-17T12:51:25.545Z,4.73
2023-02-17T12:53:59.149Z,4.80
2023-02-17T12:56:25.560Z,4.82
2023-02-17T12:58:56.364Z,4.84
2023-02-17T13:01:24.715Z,4.85
2023-02-17T13:03:51.284Z,4.82
2023-02-17T13:06:25.733Z,4.83
2023-02-17T13:08:58.011Z,4.79
2023-02-17T13:11:28.500Z,4.69
2023-02-17T13:13:54.962Z,4.69
2023-02-17T13:16:21.842Z,4.71
2023-02-17T13:18:50.629Z,4.73
2023-02-17T13:21:20.533Z,4.74
2023-02-17T13:24:07.584Z,4.74
2023-02-17T13:26:34.932Z,4.72
2023-02-17T13:29:28.184Z,4.69
2023-02-17T13:31:56.776Z,4.70
2023-02-17T13:34:31.496Z,4.76
2023-02-17T13:36:58.206Z,4.80
2023-02-17T13:39:27.784Z,4.76
2023-02-17T13:41:59.214Z,4.81
2023-02-17T13:44:31.772Z,4.89
2023-02-17T13:47:13.983Z,4.85
2023-02-17T13:49:40.778Z,4.86
2023-02-17T13:52:08.276Z,4.90
2023-02-17T13:54:34.724Z,4.94
2023-02-17T13:57:01.182Z,4.97
2023-02-17T13:59:27.760Z,5.00
2023-02-17T14:01:54.924Z,5.02
2023-02-17T14:04:30.579Z,5.05
2023-02-17T14:07:01.379Z,5.04
2023-02-17T14:09:30.680Z,5.00
2023-02-17T14:11:58.265Z,5.02
2023-02-17T14:14:30.090Z,5.01
2023-02-17T14:17:01.326Z,5.01
2023-02-17T14:19:28.302Z,5.02
2023-02-17T14:21:57.601Z,5.02
2023-02-17T14:24:25.384Z,4.95
2023-02-17T14:26:55.668Z,4.93
2023-02-17T14:29:22.128Z,4.92
2023-02-17T14:31:50.461Z,4.91
2023-02-17T14:34:26.079Z,4.87
2023-02-17T14:36:52.527Z,4.80
2023-02-17T14:39:18.996Z,4.78
2023-02-17T14:41:45.422Z,4.81
2023-02-17T14:44:11.848Z,4.78
2023-02-17T14:46:38.667Z,4.77
2023-02-17T14:49:05.174Z,4.76
2023-02-17T14:51:34.129Z,4.78
2023-02-17T14:54:03.903Z,4.80
2023-02-17T14:56:33.401Z,4.82
2023-02-17T14:58:59.916Z,4.81
2023-02-17T15:01:26.855Z,4.81
2023-02-17T15:03:53.694Z,4.78
2023-02-17T15:06:22.455Z,4.80
2023-02-17T15:08:49.420Z,4.81
2023-02-17T15:11:19.268Z,4.80
2023-02-17T15:13:45.872Z,4.81
2023-02-17T15:16:13.196Z,4.78
2023-02-17T15:18:40.705Z,4.73
2023-02-17T15:21:25.462Z,4.69
2023-02-17T15:23:52.182Z,4.67
2023-02-17T15:26:18.693Z,4.65
2023-02-17T15:28:45.155Z,4.64
2023-02-17T15:31:20.294Z,4.63
2023-02-17T15:33:55.702Z,4.60
2023-02-17T15:36:22.174Z,4.60
2023-02-17T15:38:48.664Z,4.58
2023-02-17T15:41:21.148Z,4.59
2023-02-17T15:43:48.590Z,4.64
2023-02-17T15:46:16.260Z,4.63
2023-02-17T15:48:43.317Z,4.61
2023-02-17T15:51:15.007Z,4.61
2023-02-17T15:53:42.109Z,4.59
2023-02-17T15:56:12.886Z,4.46
2023-02-17T15:58:40.003Z,4.40
2023-02-17T16:01:06.954Z,4.37
2023-02-17T16:03:33.417Z,4.40
2023-02-17T16:05:59.916Z,4.42
2023-02-17T16:08:26.362Z,4.43
2023-02-17T16:10:53.793Z,4.42
2023-02-17T16:13:20.745Z,4.42
2023-02-17T16:15:48.857Z,4.41
2023-02-17T16:18:23.132Z,4.40
2023-02-17T16:20:49.929Z,4.37
2023-02-17T16:23:16.428Z,4.31
2023-02-17T16:25:44.368Z,4.31
2023-02-17T16:28:14.656Z,4.33
2023-02-17T16:30:41.158Z,4.35
2023-02-17T16:33:09.708Z,4.35
2023-02-17T16:35:36.365Z,4.32
2023-02-17T16:38:05.288Z,4.27
2023-02-17T16:40:33.730Z,4.24
2023-02-17T16:43:00.315Z,4.24
2023-02-17T16:45:30.815Z,4.22
2023-02-17T16:47:59.269Z,4.19
2023-02-17T16:50:25.731Z,4.23
2023-02-17T16:52:53.534Z,4.24
2023-02-17T16:55:21.483Z,4.28
2023-02-17T16:57:48.377Z,4.28
2023-02-17T17:00:16.848Z,4.19
2023-02-17T17:02:44.173Z,4.08
2023-02-17T17:05:11.829Z,4.05
2023-02-17T17:07:39.240Z,4.07
2023-02-17T17:10:16.567Z,4.07
2023-02-17T17:12:43.824Z,4.06
2023-02-17T17:15:10.679Z,4.09
2023-02-17T17:17:42.803Z,4.11
2023-02-17T17:20:13.584Z,4.02
2023-02-17T17:22:40.296Z,4.08
2023-02-17T17:25:07.060Z,4.09
2023-02-17T17:27:33.517Z,4.14
2023-02-17T17:30:00.061Z,4.15
2023-02-17T17:32:26.673Z,4.10
2023-02-17T17:34:53.252Z,4.12
2023-02-17T17:37:19.693Z,4.06
2023-02-17T17:39:46.110Z,4.04
2023-02-17T17:42:12.928Z,3.96
2023-02-17T17:44:39.463Z,3.96
2023-02-17T17:47:05.867Z,3.98
2023-02-17T17:49:32.308Z,3.97
2023-02-17T17:51:58.752Z,3.98
2023-02-17T17:54:25.173Z,4.00
2023-02-17T17:56:51.644Z,4.00
2023-02-17T17:59:18.052Z,4.01
2023-02-17T18:01:45.869Z,4.04
2023-02-17T18:04:12.506Z,4.06
2023-02-17T18:06:40.748Z,4.05
2023-02-17T18:09:07.975Z,4.05
2023-02-17T18:11:35.228Z,4.04
2023-02-17T18:14:04.384Z,3.95
2023-02-17T18:16:32.055Z,3.89
2023-02-17T18:18:59.415Z,3.90
2023-02-17T18:21:25.862Z,3.92
2023-02-17T18:23:52.466Z,3.91
2023-02-17T18:26:19.159Z,3.86
2023-02-17T18:28:45.982Z,3.86
2023-02-17T18:31:13.718Z,3.77
2023-02-17T18:33:40.232Z,3.80
2023-02-17T18:36:10.691Z,3.81
2023-02-17T18:38:37.297Z,3.82
2023-02-17T18:41:03.925Z,3.87
2023-02-17T18:43:30.721Z,3.84
2023-02-17T18:45:57.336Z,3.86
2023-02-17T18:48:24.153Z,3.84
2023-02-17T18:50:50.874Z,3.75
2023-02-17T18:53:17.649Z,3.79
2023-02-17T18:55:44.569Z,3.81
2023-02-17T18:58:12.409Z,3.79
2023-02-17T19:00:39.011Z,3.75
2023-02-17T19:03:05.473Z,3.75
2023-02-17T19:05:31.923Z,3.77
2023-02-17T19:07:58.729Z,3.75
2023-02-17T19:10:25.161Z,3.78
2023-02-17T19:12:51.627Z,3.72
2023-02-17T19:15:20.976Z,3.67
2023-02-17T19:17:48.642Z,3.71
2023-02-17T19:20:17.003Z,3.73
2023-02-17T19:22:43.528Z,3.75
2023-02-17T19:25:10.129Z,3.73
2023-02-17T19:27:38.327Z,3.76
2023-02-17T19:30:05.126Z,3.76
2023-02-17T19:32:31.584Z,3.78
2023-02-17T19:34:57.998Z,3.79
2023-02-17T19:37:24.439Z,3.77
2023-02-17T19:39:50.852Z,3.68
2023-02-17T19:42:17.406Z,3.70
2023-02-17T19:44:43.878Z,3.74
2023-02-17T19:47:10.322Z,3.77
2023-02-17T19:49:36.761Z,3.76
2023-02-17T19:52:03.386Z,3.77
2023-02-17T19:54:29.814Z,3.77
2023-02-17T19:56:56.225Z,3.75
2023-02-17T19:59:22.726Z,3.70
2023-02-17T20:01:49.625Z,3.72
2023-02-17T20:04:16.150Z,3.80
2023-02-17T20:06:44.155Z,3.73
2023-02-17T20:09:13.806Z,3.68
2023-02-17T20:11:40.407Z,3.62
2023-02-17T20:14:07.439Z,3.63
2023-02-17T20:16:34.060Z,3.62
2023-02-17T20:19:01.667Z,3.62
2023-02-17T20:21:29.128Z,3.60
2023-02-17T20:23:55.864Z,3.57
2023-02-17T20:26:25.355Z,3.56
2023-02-17T20:28:51.999Z,3.57
2023-02-17T20:31:18.676Z,3.59
2023-02-17T20:33:45.201Z,3.63
2023-02-17T20:36:14.925Z,3.66
2023-02-17T20:38:41.522Z,3.78
2023-02-17T20:41:09.440Z,3.83
2023-02-17T20:43:37.760Z,3.83
2023-02-17T20:46:04.271Z,3.86
2023-02-17T20:48:30.812Z,3.84
2023-02-17T20:50:58.043Z,3.84
2023-02-17T20:53:25.566Z,3.85
2023-02-17T20:55:52.407Z,3.83
2023-02-17T20:58:18.956Z,3.88
2023-02-17T21:00:46.103Z,3.12
2023-02-17T21:03:12.707Z,3.00
2023-02-17T21:05:39.308Z,2.97
2023-02-17T21:08:05.734Z,2.92
2023-02-17T21:10:32.893Z,2.93
2023-02-17T21:12:59.618Z,2.95
2023-02-17T21:15:27.295Z,2.96
2023-02-17T21:17:53.800Z,2.84
2023-02-17T21:20:20.903Z,2.81
2023-02-17T21:22:47.753Z,2.83
2023-02-17T21:25:15.771Z,2.88
2023-02-17T21:27:42.301Z,2.87
2023-02-17T21:30:09.610Z,2.85
2023-02-17T21:32:36.198Z,2.85
2023-02-17T21:35:05.451Z,2.88
2023-02-17T21:37:32.004Z,2.88
2023-02-17T21:39:59.156Z,2.86
2023-02-17T21:42:45.864Z,2.86
2023-02-17T21:45:12.690Z,2.91
2023-02-17T21:47:39.141Z,2.90
2023-02-17T21:50:05.996Z,2.95
2023-02-17T21:52:32.461Z,3.01
2023-02-17T21:55:01.060Z,3.72
2023-02-17T21:57:27.571Z,3.92
2023-02-17T21:59:54.033Z,4.02
2023-02-17T22:02:20.475Z,4.03
2023-02-17T22:04:46.917Z,4.02
2023-02-17T22:07:13.532Z,4.03
2023-02-17T22:09:39.968Z,4.03
2023-02-17T22:12:06.586Z,4.06
2023-02-17T22:14:33.031Z,4.12
2023-02-17T22:16:59.473Z,4.09
2023-02-17T22:19:25.971Z,4.08
2023-02-17T22:21:52.601Z,4.07
2023-02-17T22:24:20.802Z,4.14
2023-02-17T22:26:48.049Z,4.18
2023-02-17T22:29:14.523Z,4.23
2023-02-17T22:31:41.230Z,4.31
2023-02-17T22:34:09.777Z,4.45
2023-02-17T22:36:36.740Z,4.57
2023-02-17T22:39:04.528Z,4.67
2023-02-17T22:41:31.125Z,4.79
2023-02-17T22:43:57.641Z,4.88
2023-02-17T22:46:24.959Z,5.01
2023-02-17T22:48:52.252Z,5.06
2023-02-17T22:51:20.035Z,5.12
2023-02-17T22:53:46.639Z,5.17
2023-02-17T22:56:13.683Z,5.27
2023-02-17T22:58:40.155Z,5.31
2023-02-17T23:01:07.979Z,5.35
2023-02-17T23:03:34.880Z,5.37
2023-02-17T23:06:06.053Z,5.38
2023-02-17T23:08:32.750Z,5.42
2023-02-17T23:10:59.205Z,5.45
2023-02-17T23:13:25.997Z,5.50
2023-02-17T23:15:52.417Z,5.53
2023-02-17T23:18:19.573Z,5.55
2023-02-17T23:20:47.912Z,5.61
2023-02-17T23:23:14.697Z,5.66
2023-02-17T23:25:51.151Z,5.70
2023-02-17T23:28:19.122Z,5.72
2023-02-17T23:30:47.519Z,5.73
2023-02-17T23:33:23.672Z,5.70
2023-02-17T23:35:50.219Z,5.74
2023-02-17T23:38:18.206Z,5.74
2023-02-17T23:40:47.870Z,5.71
2023-02-17T23:43:14.322Z,5.73
2023-02-17T23:45:40.833Z,5.71
2023-02-17T23:48:07.367Z,5.64
2023-02-17T23:50:33.799Z,5.61
2023-02-17T23:53:00.228Z,5.65
2023-02-17T23:55:26.768Z,5.72
2023-02-17T23:57:53.204Z,5.85
